sensor_id;sensor_type;location;lat;lon;timestamp;temperature;humidity
52543;DHT22;38449;52.696;6.186;2022-11-20T00:01:08;-1.20;99.90
52543;DHT22;38449;52.696;6.186;2022-11-20T00:03:35;-1.20;99.90
52543;DHT22;38449;52.696;6.186;2022-11-20T00:06:02;-1.30;99.90
52543;DHT22;38449;52.696;6.186;2022-11-20T00:08:27;-1.40;99.90
52543;DHT22;38449;52.696;6.186;2022-11-20T00:10:53;-1.40;99.90
52543;DHT22;38449;52.696;6.186;2022-11-20T00:13:19;-1.40;99.90
52543;DHT22;38449;52.696;6.186;2022-11-20T00:15:44;-1.50;99.90
52543;DHT22;38449;52.696;6.186;2022-11-20T00:18:10;-1.50;99.90
52543;DHT22;38449;52.696;6.186;2022-11-20T00:20:35;-1.50;99.90
52543;DHT22;38449;52.696;6.186;2022-11-20T00:23:01;-1.40;99.90
52543;DHT22;38449;52.696;6.186;2022-11-20T00:25:26;-1.40;99.90
52543;DHT22;38449;52.696;6.186;2022-11-20T00:27:52;-1.40;99.90
52543;DHT22;38449;52.696;6.186;2022-11-20T00:30:18;-1.40;99.90
52543;DHT22;38449;52.696;6.186;2022-11-20T00:32:43;-1.50;99.90
52543;DHT22;38449;52.696;6.186;2022-11-20T00:35:09;-1.50;99.90
52543;DHT22;38449;52.696;6.186;2022-11-20T00:37:34;-1.60;99.90
52543;DHT22;38449;52.696;6.186;2022-11-20T00:40:00;-1.60;99.90
52543;DHT22;38449;52.696;6.186;2022-11-20T00:42:25;-1.60;99.90
52543;DHT22;38449;52.696;6.186;2022-11-20T00:44:51;-1.60;99.90
52543;DHT22;38449;52.696;6.186;2022-11-20T00:47:17;-1.70;99.90
52543;DHT22;38449;52.696;6.186;2022-11-20T00:49:42;-1.80;99.90
52543;DHT22;38449;52.696;6.186;2022-11-20T00:52:08;-1.80;99.90
52543;DHT22;38449;52.696;6.186;2022-11-20T00:54:34;-1.90;99.90
52543;DHT22;38449;52.696;6.186;2022-11-20T00:57:00;-1.90;99.90
52543;DHT22;38449;52.696;6.186;2022-11-20T00:59:25;-1.90;99.90
52543;DHT22;38449;52.696;6.186;2022-11-20T01:01:51;-1.90;99.90
52543;DHT22;38449;52.696;6.186;2022-11-20T01:04:16;-1.90;99.90
52543;DHT22;38449;52.696;6.186;2022-11-20T01:06:42;-2.00;99.90
52543;DHT22;38449;52.696;6.186;2022-11-20T01:09:12;-2.00;99.90
52543;DHT22;38449;52.696;6.186;2022-11-20T01:11:42;-2.00;99.90
52543;DHT22;38449;52.696;6.186;2022-11-20T01:14:12;-1.90;99.90
52543;DHT22;38449;52.696;6.186;2022-11-20T01:16:40;-1.90;99.90
52543;DHT22;38449;52.696;6.186;2022-11-20T01:19:09;-1.90;99.90
52543;DHT22;38449;52.696;6.186;2022-11-20T01:21:37;-1.80;99.90
52543;DHT22;38449;52.696;6.186;2022-11-20T01:24:05;-1.80;99.90
52543;DHT22;38449;52.696;6.186;2022-11-20T01:26:34;-1.80;99.90
52543;DHT22;38449;52.696;6.186;2022-11-20T01:29:01;-1.60;99.90
52543;DHT22;38449;52.696;6.186;2022-11-20T01:31:35;-1.80;99.90
52543;DHT22;38449;52.696;6.186;2022-11-20T01:34:06;-1.80;99.90
52543;DHT22;38449;52.696;6.186;2022-11-20T01:36:33;-1.80;99.90
52543;DHT22;38449;52.696;6.186;2022-11-20T01:39:09;-1.80;99.90
52543;DHT22;38449;52.696;6.186;2022-11-20T01:41:35;-1.70;99.90
52543;DHT22;38449;52.696;6.186;2022-11-20T01:44:22;-1.80;99.90
52543;DHT22;38449;52.696;6.186;2022-11-20T01:49:24;-1.80;99.90
52543;DHT22;38449;52.696;6.186;2022-11-20T01:51:56;-1.80;99.90
52543;DHT22;38449;52.696;6.186;2022-11-20T01:54:30;-1.80;99.90
52543;DHT22;38449;52.696;6.186;2022-11-20T01:56:59;-1.80;99.90
52543;DHT22;38449;52.696;6.186;2022-11-20T01:59:26;-1.70;99.90
52543;DHT22;38449;52.696;6.186;2022-11-20T02:01:53;-1.70;99.90
52543;DHT22;38449;52.696;6.186;2022-11-20T02:04:20;-1.80;99.90
52543;DHT22;38449;52.696;6.186;2022-11-20T02:06:56;-1.80;99.90
52543;DHT22;38449;52.696;6.186;2022-11-20T02:09:22;-1.70;99.90
52543;DHT22;38449;52.696;6.186;2022-11-20T02:11:48;-1.80;99.90
52543;DHT22;38449;52.696;6.186;2022-11-20T02:14:14;-1.70;99.90
52543;DHT22;38449;52.696;6.186;2022-11-20T02:16:45;-1.70;99.90
52543;DHT22;38449;52.696;6.186;2022-11-20T02:19:27;-1.80;99.90
52543;DHT22;38449;52.696;6.186;2022-11-20T02:25:05;-1.90;99.90
52543;DHT22;38449;52.696;6.186;2022-11-20T02:27:32;-2.00;99.90
52543;DHT22;38449;52.696;6.186;2022-11-20T02:30:01;-2.00;99.90
52543;DHT22;38449;52.696;6.186;2022-11-20T02:32:33;-2.00;99.90
52543;DHT22;38449;52.696;6.186;2022-11-20T02:35:35;-2.00;99.90
52543;DHT22;38449;52.696;6.186;2022-11-20T02:37:56;-2.10;99.90
52543;DHT22;38449;52.696;6.186;2022-11-20T02:40:23;-2.20;99.90
52543;DHT22;38449;52.696;6.186;2022-11-20T02:42:52;-2.10;99.90
52543;DHT22;38449;52.696;6.186;2022-11-20T02:45:17;-2.10;99.90
52543;DHT22;38449;52.696;6.186;2022-11-20T02:47:43;-2.00;99.90
52543;DHT22;38449;52.696;6.186;2022-11-20T02:50:09;-2.10;99.90
52543;DHT22;38449;52.696;6.186;2022-11-20T02:52:34;-2.10;99.90
52543;DHT22;38449;52.696;6.186;2022-11-20T02:55:00;-2.10;99.90
52543;DHT22;38449;52.696;6.186;2022-11-20T02:57:26;-2.10;99.90
52543;DHT22;38449;52.696;6.186;2022-11-20T02:59:51;-2.10;99.90
52543;DHT22;38449;52.696;6.186;2022-11-20T03:02:17;-2.00;99.90
52543;DHT22;38449;52.696;6.186;2022-11-20T03:04:42;-2.10;99.90
52543;DHT22;38449;52.696;6.186;2022-11-20T03:07:09;-2.20;99.90
52543;DHT22;38449;52.696;6.186;2022-11-20T03:09:35;-2.20;99.90
52543;DHT22;38449;52.696;6.186;2022-11-20T03:12:01;-2.20;99.90
52543;DHT22;38449;52.696;6.186;2022-11-20T03:14:26;-2.20;99.90
52543;DHT22;38449;52.696;6.186;2022-11-20T03:16:52;-2.20;99.90
52543;DHT22;38449;52.696;6.186;2022-11-20T03:19:17;-2.20;99.90
52543;DHT22;38449;52.696;6.186;2022-11-20T03:21:43;-2.20;99.90
52543;DHT22;38449;52.696;6.186;2022-11-20T03:24:09;-2.30;99.90
52543;DHT22;38449;52.696;6.186;2022-11-20T03:26:34;-2.30;99.90
52543;DHT22;38449;52.696;6.186;2022-11-20T03:29:01;-2.30;99.90
52543;DHT22;38449;52.696;6.186;2022-11-20T03:31:30;-2.20;99.90
52543;DHT22;38449;52.696;6.186;2022-11-20T03:33:57;-2.20;99.90
52543;DHT22;38449;52.696;6.186;2022-11-20T03:36:23;-2.10;99.90
52543;DHT22;38449;52.696;6.186;2022-11-20T03:38:49;-2.10;99.90
52543;DHT22;38449;52.696;6.186;2022-11-20T03:41:28;-2.10;99.90
52543;DHT22;38449;52.696;6.186;2022-11-20T03:43:56;-2.10;99.90
52543;DHT22;38449;52.696;6.186;2022-11-20T03:46:22;-2.00;99.90
52543;DHT22;38449;52.696;6.186;2022-11-20T03:48:48;-2.00;99.90
52543;DHT22;38449;52.696;6.186;2022-11-20T03:51:19;-2.10;99.90
52543;DHT22;38449;52.696;6.186;2022-11-20T03:53:47;-2.10;99.90
52543;DHT22;38449;52.696;6.186;2022-11-20T03:56:14;-2.10;99.90
52543;DHT22;38449;52.696;6.186;2022-11-20T03:58:41;-2.20;99.90
52543;DHT22;38449;52.696;6.186;2022-11-20T04:01:13;-2.20;99.90
52543;DHT22;38449;52.696;6.186;2022-11-20T04:03:39;-2.30;99.90
52543;DHT22;38449;52.696;6.186;2022-11-20T04:06:06;-2.40;99.90
52543;DHT22;38449;52.696;6.186;2022-11-20T04:08:32;-2.50;99.90
52543;DHT22;38449;52.696;6.186;2022-11-20T04:11:29;-2.50;99.90
52543;DHT22;38449;52.696;6.186;2022-11-20T04:13:58;-2.40;99.90
52543;DHT22;38449;52.696;6.186;2022-11-20T04:16:25;-2.40;99.90
52543;DHT22;38449;52.696;6.186;2022-11-20T04:18:56;-2.40;99.90
52543;DHT22;38449;52.696;6.186;2022-11-20T04:21:22;-2.40;99.90
52543;DHT22;38449;52.696;6.186;2022-11-20T04:23:48;-2.30;99.90
52543;DHT22;38449;52.696;6.186;2022-11-20T04:26:15;-2.30;99.90
52543;DHT22;38449;52.696;6.186;2022-11-20T04:28:40;-2.30;99.90
52543;DHT22;38449;52.696;6.186;2022-11-20T04:31:11;-2.30;99.90
52543;DHT22;38449;52.696;6.186;2022-11-20T04:33:38;-2.30;99.90
52543;DHT22;38449;52.696;6.186;2022-11-20T04:36:11;-2.30;99.90
52543;DHT22;38449;52.696;6.186;2022-11-20T04:38:37;-2.20;99.90
52543;DHT22;38449;52.696;6.186;2022-11-20T04:41:05;-2.30;99.90
52543;DHT22;38449;52.696;6.186;2022-11-20T04:43:33;-2.30;99.90
52543;DHT22;38449;52.696;6.186;2022-11-20T04:45:59;-2.40;99.90
52543;DHT22;38449;52.696;6.186;2022-11-20T04:48:26;-2.50;99.90
52543;DHT22;38449;52.696;6.186;2022-11-20T04:50:52;-2.40;99.90
52543;DHT22;38449;52.696;6.186;2022-11-20T04:53:19;-2.40;99.90
52543;DHT22;38449;52.696;6.186;2022-11-20T04:55:44;-2.40;99.90
52543;DHT22;38449;52.696;6.186;2022-11-20T04:58:10;-2.50;99.90
52543;DHT22;38449;52.696;6.186;2022-11-20T05:00:36;-2.50;99.90
52543;DHT22;38449;52.696;6.186;2022-11-20T05:03:02;-2.60;99.90
52543;DHT22;38449;52.696;6.186;2022-11-20T05:05:27;-2.50;99.90
52543;DHT22;38449;52.696;6.186;2022-11-20T05:07:55;-2.60;99.90
52543;DHT22;38449;52.696;6.186;2022-11-20T05:10:20;-2.60;99.90
52543;DHT22;38449;52.696;6.186;2022-11-20T05:12:46;-2.70;99.90
52543;DHT22;38449;52.696;6.186;2022-11-20T05:15:11;-2.70;99.90
52543;DHT22;38449;52.696;6.186;2022-11-20T05:17:37;-2.70;99.90
52543;DHT22;38449;52.696;6.186;2022-11-20T05:20:03;-2.80;99.90
52543;DHT22;38449;52.696;6.186;2022-11-20T05:22:28;-2.80;99.90
52543;DHT22;38449;52.696;6.186;2022-11-20T05:24:54;-2.70;99.90
52543;DHT22;38449;52.696;6.186;2022-11-20T05:27:20;-2.60;99.90
52543;DHT22;38449;52.696;6.186;2022-11-20T05:29:45;-2.60;99.90
52543;DHT22;38449;52.696;6.186;2022-11-20T05:32:11;-2.60;99.90
52543;DHT22;38449;52.696;6.186;2022-11-20T05:34:37;-2.50;99.90
52543;DHT22;38449;52.696;6.186;2022-11-20T05:37:03;-2.50;99.90
52543;DHT22;38449;52.696;6.186;2022-11-20T05:39:28;-2.50;99.90
52543;DHT22;38449;52.696;6.186;2022-11-20T05:41:54;-2.50;99.90
52543;DHT22;38449;52.696;6.186;2022-11-20T05:44:39;-2.40;99.90
52543;DHT22;38449;52.696;6.186;2022-11-20T05:47:05;-2.40;99.90
52543;DHT22;38449;52.696;6.186;2022-11-20T05:49:30;-2.50;99.90
52543;DHT22;38449;52.696;6.186;2022-11-20T05:51:56;-2.50;99.90
52543;DHT22;38449;52.696;6.186;2022-11-20T05:54:23;-2.50;99.90
52543;DHT22;38449;52.696;6.186;2022-11-20T05:56:49;-2.50;99.90
52543;DHT22;38449;52.696;6.186;2022-11-20T05:59:15;-2.50;99.90
52543;DHT22;38449;52.696;6.186;2022-11-20T06:01:40;-2.50;99.90
52543;DHT22;38449;52.696;6.186;2022-11-20T06:04:06;-2.50;99.90
52543;DHT22;38449;52.696;6.186;2022-11-20T06:06:31;-2.60;99.90
52543;DHT22;38449;52.696;6.186;2022-11-20T06:08:57;-2.60;99.90
52543;DHT22;38449;52.696;6.186;2022-11-20T06:11:24;-2.60;99.90
52543;DHT22;38449;52.696;6.186;2022-11-20T06:13:50;-2.60;99.90
52543;DHT22;38449;52.696;6.186;2022-11-20T06:16:18;-2.70;99.90
52543;DHT22;38449;52.696;6.186;2022-11-20T06:18:44;-2.70;99.90
52543;DHT22;38449;52.696;6.186;2022-11-20T06:21:13;-2.80;99.90
52543;DHT22;38449;52.696;6.186;2022-11-20T06:23:39;-2.90;99.90
52543;DHT22;38449;52.696;6.186;2022-11-20T06:26:08;-3.00;99.90
52543;DHT22;38449;52.696;6.186;2022-11-20T06:28:34;-3.00;99.90
52543;DHT22;38449;52.696;6.186;2022-11-20T06:31:00;-3.10;99.90
52543;DHT22;38449;52.696;6.186;2022-11-20T06:33:27;-3.10;99.90
52543;DHT22;38449;52.696;6.186;2022-11-20T06:35:55;-3.10;99.90
52543;DHT22;38449;52.696;6.186;2022-11-20T06:38:21;-3.10;99.90
52543;DHT22;38449;52.696;6.186;2022-11-20T06:40:46;-3.20;99.90
52543;DHT22;38449;52.696;6.186;2022-11-20T06:43:12;-3.10;99.90
52543;DHT22;38449;52.696;6.186;2022-11-20T06:45:38;-3.10;99.90
52543;DHT22;38449;52.696;6.186;2022-11-20T06:48:03;-3.00;99.90
52543;DHT22;38449;52.696;6.186;2022-11-20T06:50:29;-3.00;99.90
52543;DHT22;38449;52.696;6.186;2022-11-20T06:52:55;-3.10;99.90
52543;DHT22;38449;52.696;6.186;2022-11-20T06:55:21;-3.10;99.90
52543;DHT22;38449;52.696;6.186;2022-11-20T06:57:46;-3.00;99.90
52543;DHT22;38449;52.696;6.186;2022-11-20T07:00:12;-3.00;99.90
52543;DHT22;38449;52.696;6.186;2022-11-20T07:02:38;-3.00;99.90
52543;DHT22;38449;52.696;6.186;2022-11-20T07:05:04;-3.00;99.90
52543;DHT22;38449;52.696;6.186;2022-11-20T07:07:30;-2.90;99.90
52543;DHT22;38449;52.696;6.186;2022-11-20T07:09:55;-2.90;99.90
52543;DHT22;38449;52.696;6.186;2022-11-20T07:12:21;-2.90;99.90
52543;DHT22;38449;52.696;6.186;2022-11-20T07:14:46;-2.90;99.90
52543;DHT22;38449;52.696;6.186;2022-11-20T07:17:12;-2.90;99.90
52543;DHT22;38449;52.696;6.186;2022-11-20T07:19:39;-2.90;99.90
52543;DHT22;38449;52.696;6.186;2022-11-20T07:22:05;-2.90;99.90
52543;DHT22;38449;52.696;6.186;2022-11-20T07:24:30;-2.90;99.90
52543;DHT22;38449;52.696;6.186;2022-11-20T07:26:56;-2.80;99.90
52543;DHT22;38449;52.696;6.186;2022-11-20T07:29:21;-2.80;99.90
52543;DHT22;38449;52.696;6.186;2022-11-20T07:31:47;-2.80;99.90
52543;DHT22;38449;52.696;6.186;2022-11-20T07:34:12;-2.70;99.90
52543;DHT22;38449;52.696;6.186;2022-11-20T07:36:39;-2.70;99.90
52543;DHT22;38449;52.696;6.186;2022-11-20T07:39:04;-2.60;99.90
52543;DHT22;38449;52.696;6.186;2022-11-20T07:41:30;-2.60;99.90
52543;DHT22;38449;52.696;6.186;2022-11-20T07:43:56;-2.50;99.90
52543;DHT22;38449;52.696;6.186;2022-11-20T07:46:22;-2.40;99.90
52543;DHT22;38449;52.696;6.186;2022-11-20T07:48:47;-2.30;99.90
52543;DHT22;38449;52.696;6.186;2022-11-20T07:51:13;-2.20;99.90
52543;DHT22;38449;52.696;6.186;2022-11-20T07:53:39;-2.20;99.90
52543;DHT22;38449;52.696;6.186;2022-11-20T07:56:04;-2.20;99.90
52543;DHT22;38449;52.696;6.186;2022-11-20T07:58:31;-2.10;99.90
52543;DHT22;38449;52.696;6.186;2022-11-20T08:01:05;-2.10;99.90
52543;DHT22;38449;52.696;6.186;2022-11-20T08:03:31;-2.00;99.90
52543;DHT22;38449;52.696;6.186;2022-11-20T08:05:59;-1.90;99.90
52543;DHT22;38449;52.696;6.186;2022-11-20T08:08:26;-1.80;99.90
52543;DHT22;38449;52.696;6.186;2022-11-20T08:10:52;-1.80;99.90
52543;DHT22;38449;52.696;6.186;2022-11-20T08:13:17;-1.70;99.90
52543;DHT22;38449;52.696;6.186;2022-11-20T08:16:01;-1.70;99.90
52543;DHT22;38449;52.696;6.186;2022-11-20T08:18:27;-1.60;99.90
52543;DHT22;38449;52.696;6.186;2022-11-20T08:20:52;-1.60;99.90
52543;DHT22;38449;52.696;6.186;2022-11-20T08:23:18;-1.50;99.90
52543;DHT22;38449;52.696;6.186;2022-11-20T08:25:49;-1.50;99.90
52543;DHT22;38449;52.696;6.186;2022-11-20T08:28:15;-1.40;99.90
52543;DHT22;38449;52.696;6.186;2022-11-20T08:30:40;-1.40;99.90
52543;DHT22;38449;52.696;6.186;2022-11-20T08:33:08;-1.30;99.90
52543;DHT22;38449;52.696;6.186;2022-11-20T08:35:37;-1.20;99.90
52543;DHT22;38449;52.696;6.186;2022-11-20T08:38:05;-1.20;99.90
52543;DHT22;38449;52.696;6.186;2022-11-20T08:40:31;-1.10;99.90
52543;DHT22;38449;52.696;6.186;2022-11-20T08:43:00;-1.10;99.90
52543;DHT22;38449;52.696;6.186;2022-11-20T08:45:26;-1.00;99.90
52543;DHT22;38449;52.696;6.186;2022-11-20T08:47:51;-0.90;99.90
52543;DHT22;38449;52.696;6.186;2022-11-20T08:50:17;-0.90;99.90
52543;DHT22;38449;52.696;6.186;2022-11-20T08:52:43;-0.80;99.90
52543;DHT22;38449;52.696;6.186;2022-11-20T08:55:10;-0.80;99.90
52543;DHT22;38449;52.696;6.186;2022-11-20T08:57:36;-0.70;99.90
52543;DHT22;38449;52.696;6.186;2022-11-20T09:00:04;-0.60;99.90
52543;DHT22;38449;52.696;6.186;2022-11-20T09:02:30;-0.50;99.90
52543;DHT22;38449;52.696;6.186;2022-11-20T09:04:56;-0.50;99.90
52543;DHT22;38449;52.696;6.186;2022-11-20T09:07:22;-0.50;99.90
52543;DHT22;38449;52.696;6.186;2022-11-20T09:09:47;-0.30;99.90
52543;DHT22;38449;52.696;6.186;2022-11-20T09:12:13;-0.30;99.90
52543;DHT22;38449;52.696;6.186;2022-11-20T09:14:39;-0.20;99.90
52543;DHT22;38449;52.696;6.186;2022-11-20T09:17:04;-0.20;99.90
52543;DHT22;38449;52.696;6.186;2022-11-20T09:19:33;-0.10;99.90
52543;DHT22;38449;52.696;6.186;2022-11-20T09:21:58;-0.10;99.90
52543;DHT22;38449;52.696;6.186;2022-11-20T09:24:25;0.00;99.90
52543;DHT22;38449;52.696;6.186;2022-11-20T09:26:51;0.10;99.90
52543;DHT22;38449;52.696;6.186;2022-11-20T09:29:17;0.10;99.90
52543;DHT22;38449;52.696;6.186;2022-11-20T09:31:42;0.20;99.90
52543;DHT22;38449;52.696;6.186;2022-11-20T09:34:08;0.30;99.90
52543;DHT22;38449;52.696;6.186;2022-11-20T09:36:33;0.40;99.90
52543;DHT22;38449;52.696;6.186;2022-11-20T09:38:59;0.40;99.90
52543;DHT22;38449;52.696;6.186;2022-11-20T09:46:55;0.60;99.90
52543;DHT22;38449;52.696;6.186;2022-11-20T09:49:54;0.70;99.90
52543;DHT22;38449;52.696;6.186;2022-11-20T09:55:03;0.80;99.90
52543;DHT22;38449;52.696;6.186;2022-11-20T09:57:41;0.90;99.90
52543;DHT22;38449;52.696;6.186;2022-11-20T10:00:10;0.90;99.90
52543;DHT22;38449;52.696;6.186;2022-11-20T10:03:11;1.00;99.90
52543;DHT22;38449;52.696;6.186;2022-11-20T10:05:47;1.00;99.90
52543;DHT22;38449;52.696;6.186;2022-11-20T10:08:25;1.10;99.90
52543;DHT22;38449;52.696;6.186;2022-11-20T10:13:39;1.20;99.90
52543;DHT22;38449;52.696;6.186;2022-11-20T10:16:36;1.10;99.90
52543;DHT22;38449;52.696;6.186;2022-11-20T10:19:40;1.30;99.90
52543;DHT22;38449;52.696;6.186;2022-11-20T10:22:21;1.30;99.90
52543;DHT22;38449;52.696;6.186;2022-11-20T10:30:40;1.60;99.90
52543;DHT22;38449;52.696;6.186;2022-11-20T10:33:17;1.70;99.90
52543;DHT22;38449;52.696;6.186;2022-11-20T10:36:06;1.80;99.90
52543;DHT22;38449;52.696;6.186;2022-11-20T10:38:38;1.80;99.90
52543;DHT22;38449;52.696;6.186;2022-11-20T10:41:06;1.80;99.90
52543;DHT22;38449;52.696;6.186;2022-11-20T10:44:12;1.80;99.90
52543;DHT22;38449;52.696;6.186;2022-11-20T10:46:44;1.80;99.90
52543;DHT22;38449;52.696;6.186;2022-11-20T10:49:31;1.70;99.90
52543;DHT22;38449;52.696;6.186;2022-11-20T10:58:16;1.70;99.90
52543;DHT22;38449;52.696;6.186;2022-11-20T11:00:47;1.70;99.90
52543;DHT22;38449;52.696;6.186;2022-11-20T11:03:29;1.70;99.90
52543;DHT22;38449;52.696;6.186;2022-11-20T11:08:40;1.80;99.90
52543;DHT22;38449;52.696;6.186;2022-11-20T11:11:22;1.80;99.90
52543;DHT22;38449;52.696;6.186;2022-11-20T11:13:48;1.80;99.90
52543;DHT22;38449;52.696;6.186;2022-11-20T11:16:25;1.80;99.90
52543;DHT22;38449;52.696;6.186;2022-11-20T11:19:04;1.80;99.90
52543;DHT22;38449;52.696;6.186;2022-11-20T11:21:29;1.90;99.90
52543;DHT22;38449;52.696;6.186;2022-11-20T11:24:00;2.00;99.90
52543;DHT22;38449;52.696;6.186;2022-11-20T11:26:27;2.00;99.90
52543;DHT22;38449;52.696;6.186;2022-11-20T11:28:58;2.10;99.90
52543;DHT22;38449;52.696;6.186;2022-11-20T11:31:26;2.10;99.90
52543;DHT22;38449;52.696;6.186;2022-11-20T11:33:52;2.10;99.90
52543;DHT22;38449;52.696;6.186;2022-11-20T11:36:21;2.20;99.90
52543;DHT22;38449;52.696;6.186;2022-11-20T11:38:51;2.30;99.90
52543;DHT22;38449;52.696;6.186;2022-11-20T11:41:23;2.30;99.90
52543;DHT22;38449;52.696;6.186;2022-11-20T11:44:14;2.40;99.90
52543;DHT22;38449;52.696;6.186;2022-11-20T11:46:59;2.50;99.90
52543;DHT22;38449;52.696;6.186;2022-11-20T11:49:25;2.50;99.90
52543;DHT22;38449;52.696;6.186;2022-11-20T11:52:00;2.60;99.90
52543;DHT22;38449;52.696;6.186;2022-11-20T11:54:47;2.50;99.90
52543;DHT22;38449;52.696;6.186;2022-11-20T11:57:40;2.50;99.90
52543;DHT22;38449;52.696;6.186;2022-11-20T12:00:16;2.40;99.90
52543;DHT22;38449;52.696;6.186;2022-11-20T12:07:47;2.30;99.90
52543;DHT22;38449;52.696;6.186;2022-11-20T12:10:35;2.30;99.90
52543;DHT22;38449;52.696;6.186;2022-11-20T12:15:54;2.30;99.90
52543;DHT22;38449;52.696;6.186;2022-11-20T12:18:21;2.40;99.90
52543;DHT22;38449;52.696;6.186;2022-11-20T12:21:03;2.30;99.90
52543;DHT22;38449;52.696;6.186;2022-11-20T12:29:25;2.40;99.90
52543;DHT22;38449;52.696;6.186;2022-11-20T12:35:07;2.50;99.90
52543;DHT22;38449;52.696;6.186;2022-11-20T12:38:01;2.50;99.90
52543;DHT22;38449;52.696;6.186;2022-11-20T12:43:25;2.50;99.90
52543;DHT22;38449;52.696;6.186;2022-11-20T12:49:29;2.50;99.90
52543;DHT22;38449;52.696;6.186;2022-11-20T12:52:07;2.50;99.90
52543;DHT22;38449;52.696;6.186;2022-11-20T13:00:01;2.40;99.90
52543;DHT22;38449;52.696;6.186;2022-11-20T13:08:31;2.40;99.90
52543;DHT22;38449;52.696;6.186;2022-11-20T13:16:54;2.50;99.90
52543;DHT22;38449;52.696;6.186;2022-11-20T13:19:23;2.50;99.90
52543;DHT22;38449;52.696;6.186;2022-11-20T13:21:50;2.50;99.90
52543;DHT22;38449;52.696;6.186;2022-11-20T13:26:45;2.50;99.90
52543;DHT22;38449;52.696;6.186;2022-11-20T13:29:19;2.60;99.90
52543;DHT22;38449;52.696;6.186;2022-11-20T13:31:46;2.50;99.90
52543;DHT22;38449;52.696;6.186;2022-11-20T13:34:22;2.50;99.90
52543;DHT22;38449;52.696;6.186;2022-11-20T13:36:53;2.60;99.90
52543;DHT22;38449;52.696;6.186;2022-11-20T13:39:27;2.60;99.90
52543;DHT22;38449;52.696;6.186;2022-11-20T13:41:58;2.60;99.90
52543;DHT22;38449;52.696;6.186;2022-11-20T13:44:34;2.60;99.90
52543;DHT22;38449;52.696;6.186;2022-11-20T13:47:04;2.60;99.90
52543;DHT22;38449;52.696;6.186;2022-11-20T13:49:37;2.60;99.90
52543;DHT22;38449;52.696;6.186;2022-11-20T13:55:18;2.50;99.90
52543;DHT22;38449;52.696;6.186;2022-11-20T14:00:55;2.60;99.90
52543;DHT22;38449;52.696;6.186;2022-11-20T14:03:23;2.60;99.90
52543;DHT22;38449;52.696;6.186;2022-11-20T14:05:52;2.50;99.90
52543;DHT22;38449;52.696;6.186;2022-11-20T14:08:31;2.50;99.90
52543;DHT22;38449;52.696;6.186;2022-11-20T14:16:20;2.50;99.90
52543;DHT22;38449;52.696;6.186;2022-11-20T14:18:46;2.60;99.90
52543;DHT22;38449;52.696;6.186;2022-11-20T14:21:11;2.60;99.90
52543;DHT22;38449;52.696;6.186;2022-11-20T14:23:47;3.10;99.90
52543;DHT22;38449;52.696;6.186;2022-11-20T14:26:15;2.60;99.90
52543;DHT22;38449;52.696;6.186;2022-11-20T14:28:42;2.50;99.90
52543;DHT22;38449;52.696;6.186;2022-11-20T14:31:20;2.50;99.90
52543;DHT22;38449;52.696;6.186;2022-11-20T14:33:46;2.50;99.90
52543;DHT22;38449;52.696;6.186;2022-11-20T14:36:17;2.50;99.90
52543;DHT22;38449;52.696;6.186;2022-11-20T14:38:43;2.50;99.90
52543;DHT22;38449;52.696;6.186;2022-11-20T14:41:17;2.40;99.90
52543;DHT22;38449;52.696;6.186;2022-11-20T14:43:46;2.40;99.90
52543;DHT22;38449;52.696;6.186;2022-11-20T14:46:12;2.40;99.90
52543;DHT22;38449;52.696;6.186;2022-11-20T14:48:46;2.40;99.90
52543;DHT22;38449;52.696;6.186;2022-11-20T14:51:33;2.40;99.90
52543;DHT22;38449;52.696;6.186;2022-11-20T14:54:21;2.40;99.90
52543;DHT22;38449;52.696;6.186;2022-11-20T14:56:57;2.40;99.90
52543;DHT22;38449;52.696;6.186;2022-11-20T14:59:27;2.40;99.90
52543;DHT22;38449;52.696;6.186;2022-11-20T15:02:02;2.40;99.90
52543;DHT22;38449;52.696;6.186;2022-11-20T15:04:30;2.40;99.90
52543;DHT22;38449;52.696;6.186;2022-11-20T15:06:58;2.40;99.90
52543;DHT22;38449;52.696;6.186;2022-11-20T15:09:24;2.40;99.90
52543;DHT22;38449;52.696;6.186;2022-11-20T15:11:58;2.40;99.90
52543;DHT22;38449;52.696;6.186;2022-11-20T15:14:26;2.40;99.90
52543;DHT22;38449;52.696;6.186;2022-11-20T15:16:53;2.40;99.90
52543;DHT22;38449;52.696;6.186;2022-11-20T15:19:25;2.40;99.90
52543;DHT22;38449;52.696;6.186;2022-11-20T15:21:51;2.40;99.90
52543;DHT22;38449;52.696;6.186;2022-11-20T15:24:17;2.40;99.90
52543;DHT22;38449;52.696;6.186;2022-11-20T15:26:43;2.40;99.90
52543;DHT22;38449;52.696;6.186;2022-11-20T15:29:14;2.40;99.90
52543;DHT22;38449;52.696;6.186;2022-11-20T15:31:40;2.40;99.90
52543;DHT22;38449;52.696;6.186;2022-11-20T15:34:11;2.40;99.90
52543;DHT22;38449;52.696;6.186;2022-11-20T15:36:38;2.40;99.90
52543;DHT22;38449;52.696;6.186;2022-11-20T15:39:04;2.40;99.90
52543;DHT22;38449;52.696;6.186;2022-11-20T15:41:29;2.40;99.90
52543;DHT22;38449;52.696;6.186;2022-11-20T15:43:55;2.40;99.90
52543;DHT22;38449;52.696;6.186;2022-11-20T15:46:26;2.40;99.90
52543;DHT22;38449;52.696;6.186;2022-11-20T15:48:55;2.40;99.90
52543;DHT22;38449;52.696;6.186;2022-11-20T15:51:33;2.40;99.90
52543;DHT22;38449;52.696;6.186;2022-11-20T15:53:59;2.40;99.90
52543;DHT22;38449;52.696;6.186;2022-11-20T15:56:26;2.40;99.90
52543;DHT22;38449;52.696;6.186;2022-11-20T15:58:51;2.40;99.90
52543;DHT22;38449;52.696;6.186;2022-11-20T16:01:20;2.40;99.90
52543;DHT22;38449;52.696;6.186;2022-11-20T16:03:46;2.50;99.90
52543;DHT22;38449;52.696;6.186;2022-11-20T16:06:12;2.50;99.90
52543;DHT22;38449;52.696;6.186;2022-11-20T16:08:37;2.50;99.90
52543;DHT22;38449;52.696;6.186;2022-11-20T16:11:04;2.40;99.90
52543;DHT22;38449;52.696;6.186;2022-11-20T16:13:31;2.40;99.90
52543;DHT22;38449;52.696;6.186;2022-11-20T16:16:22;2.40;99.90
52543;DHT22;38449;52.696;6.186;2022-11-20T16:18:49;2.40;99.90
52543;DHT22;38449;52.696;6.186;2022-11-20T16:21:15;2.50;99.90
52543;DHT22;38449;52.696;6.186;2022-11-20T16:23:41;2.40;99.90
52543;DHT22;38449;52.696;6.186;2022-11-20T16:26:15;2.40;99.90
52543;DHT22;38449;52.696;6.186;2022-11-20T16:28:42;2.40;99.90
52543;DHT22;38449;52.696;6.186;2022-11-20T16:31:09;2.40;99.90
52543;DHT22;38449;52.696;6.186;2022-11-20T16:33:35;2.40;99.90
52543;DHT22;38449;52.696;6.186;2022-11-20T16:36:13;2.40;99.90
52543;DHT22;38449;52.696;6.186;2022-11-20T16:38:39;2.40;99.90
52543;DHT22;38449;52.696;6.186;2022-11-20T16:41:05;2.40;99.90
52543;DHT22;38449;52.696;6.186;2022-11-20T16:43:31;2.50;99.90
52543;DHT22;38449;52.696;6.186;2022-11-20T16:45:57;2.40;99.90
52543;DHT22;38449;52.696;6.186;2022-11-20T16:48:22;2.40;99.90
52543;DHT22;38449;52.696;6.186;2022-11-20T16:50:50;2.50;99.90
52543;DHT22;38449;52.696;6.186;2022-11-20T16:53:21;2.50;99.90
52543;DHT22;38449;52.696;6.186;2022-11-20T16:55:47;2.40;99.90
52543;DHT22;38449;52.696;6.186;2022-11-20T16:58:13;2.40;99.90
52543;DHT22;38449;52.696;6.186;2022-11-20T17:00:40;2.40;99.90
52543;DHT22;38449;52.696;6.186;2022-11-20T17:03:06;2.40;99.90
52543;DHT22;38449;52.696;6.186;2022-11-20T17:05:32;2.40;99.90
52543;DHT22;38449;52.696;6.186;2022-11-20T17:07:59;2.40;99.90
52543;DHT22;38449;52.696;6.186;2022-11-20T17:10:24;2.40;99.90
52543;DHT22;38449;52.696;6.186;2022-11-20T17:12:50;2.40;99.90
52543;DHT22;38449;52.696;6.186;2022-11-20T17:15:15;2.40;99.90